Time;durP1;ratioP1;P1;durP2;ratioP2;P2;SDS_P1;SDS_P2;PMS_P1;PMS_P2;Temp;Humidity;BMP_temperature;BMP_pressure;BME280_temperature;BME280_humidity;BME280_pressure;Samples;Min_cycle;Max_cycle;Signal;HPM_P1;HPM_P2
2023/10/16 00:00:57;;;;;;;6.27;4.27;;;;;20.90;101251.00;;;;2062634;28;20230;-56
2023/10/16 00:01:58;;;;;;;5.60;4.60;;;;;20.90;101251.00;;;;2076266;28;20279;-56
2023/10/16 00:03:02;;;;;;;7.57;4.77;;;;;20.90;101251.00;;;;2062255;28;20234;-56
2023/10/16 00:04:04;;;;;;;8.48;4.43;;;;;20.90;101250.00;;;;2071264;28;20221;-56
2023/10/16 00:05:08;;;;;;;9.60;4.63;;;;;20.90;101253.00;;;;2068902;28;20218;-56
2023/10/16 00:06:12;;;;;;;7.25;4.45;;;;;20.90;101252.00;;;;2073797;28;20228;-55
2023/10/16 00:07:13;;;;;;;4.80;3.50;;;;;20.90;101254.00;;;;2074058;28;20214;-56
2023/10/16 00:08:16;;;;;;;4.72;4.00;;;;;20.90;101254.00;;;;2063393;28;20218;-56
2023/10/16 00:09:22;;;;;;;5.85;4.00;;;;;20.90;101244.00;;;;2071401;28;20214;-55
2023/10/16 00:10:25;;;;;;;7.75;4.45;;;;;20.90;101251.00;;;;2073753;28;20230;-56
2023/10/16 00:11:25;;;;;;;4.70;3.58;;;;;20.90;101246.00;;;;2076724;28;20241;-56
2023/10/16 00:12:29;;;;;;;7.60;4.30;;;;;20.90;101254.00;;;;2072958;28;20257;-56
2023/10/16 00:13:30;;;;;;;5.25;3.50;;;;;20.90;101253.00;;;;2061700;28;20313;-56
2023/10/16 00:14:31;;;;;;;5.30;3.60;;;;;20.90;101242.00;;;;2068931;28;20270;-56
2023/10/16 00:15:40;;;;;;;6.10;3.57;;;;;20.90;101271.00;;;;2072108;28;20218;-55
2023/10/16 00:16:44;;;;;;;5.00;3.78;;;;;20.10;101246.00;;;;2070255;28;21148;-56
2023/10/16 00:17:45;;;;;;;5.57;3.60;;;;;20.80;101242.00;;;;2060548;28;20231;-56
2023/10/16 00:18:48;;;;;;;5.73;3.63;;;;;20.90;101245.00;;;;2071947;28;20225;-56
2023/10/16 00:19:50;;;;;;;6.72;3.50;;;;;20.80;101242.00;;;;2063876;28;20214;-55
2023/10/16 00:20:51;;;;;;;4.00;3.25;;;;;20.80;101246.00;;;;2073283;28;20700;-55
2023/10/16 00:21:52;;;;;;;4.50;3.60;;;;;20.80;101240.00;;;;2069557;28;20221;-56
2023/10/16 00:22:52;;;;;;;4.40;3.37;;;;;20.80;101249.00;;;;2068498;28;20206;-56
2023/10/16 00:23:54;;;;;;;4.00;3.13;;;;;20.90;101242.00;;;;2074074;28;20226;-56
2023/10/16 00:24:58;;;;;;;7.78;3.60;;;;;20.80;101241.00;;;;2071446;28;20213;-56
2023/10/16 00:25:58;;;;;;;5.68;3.72;;;;;20.80;101245.00;;;;2071230;28;20301;-56
2023/10/16 00:27:00;;;;;;;4.50;3.57;;;;;20.80;101239.00;;;;2067334;28;20249;-56
2023/10/16 00:28:01;;;;;;;6.25;3.53;;;;;20.80;101241.00;;;;2060675;28;20230;-55
2023/10/16 00:29:17;;;;;;;5.75;3.55;;;;;20.80;101242.00;;;;2068642;28;20221;-56
2023/10/16 00:30:17;;;;;;;5.35;3.30;;;;;20.80;101247.00;;;;2053829;28;20215;-56
2023/10/16 00:31:20;;;;;;;5.10;3.53;;;;;20.80;101237.00;;;;2061272;28;20329;-56
2023/10/16 00:32:21;;;;;;;5.40;3.58;;;;;20.80;101243.00;;;;2072181;28;20215;-56
2023/10/16 00:33:21;;;;;;;4.10;2.60;;;;;20.80;101240.00;;;;2064713;28;20222;-56
2023/10/16 00:34:21;;;;;;;6.20;3.20;;;;;20.80;101239.00;;;;2071014;28;20602;-56
2023/10/16 00:35:22;;;;;;;3.77;3.20;;;;;20.80;101239.00;;;;2074407;28;20306;-56
2023/10/16 00:36:22;;;;;;;4.03;2.90;;;;;20.80;101245.00;;;;2070326;28;20265;-56
2023/10/16 00:37:22;;;;;;;4.70;3.00;;;;;20.80;101238.00;;;;2071561;28;20214;-56
2023/10/16 00:38:23;;;;;;;3.37;2.77;;;;;20.80;101235.00;;;;2060063;28;20226;-55
2023/10/16 00:39:28;;;;;;;3.70;2.93;;;;;20.80;101230.00;;;;2076902;28;20213;-56
2023/10/16 00:40:33;;;;;;;4.00;3.10;;;;;20.80;101229.00;;;;2072726;28;20226;-56
2023/10/16 00:41:34;;;;;;;4.45;3.10;;;;;20.80;101230.00;;;;2070448;28;20217;-56
2023/10/16 00:42:34;;;;;;;3.53;2.60;;;;;20.80;101231.00;;;;2071162;28;20210;-56
2023/10/16 00:43:34;;;;;;;4.37;2.77;;;;;20.80;101240.00;;;;2062782;28;20233;-56
2023/10/16 00:44:35;;;;;;;4.50;2.83;;;;;20.80;101231.00;;;;2071464;28;20241;-56
2023/10/16 00:45:45;;;;;;;3.97;3.03;;;;;20.80;101225.00;;;;2073481;28;20218;-56
2023/10/16 00:46:48;;;;;;;4.03;3.03;;;;;20.80;101225.00;;;;2065405;28;20225;-56
2023/10/16 00:47:48;;;;;;;3.63;2.65;;;;;20.80;101237.00;;;;2046257;28;20307;-55
2023/10/16 00:48:49;;;;;;;3.70;3.27;;;;;20.80;101226.00;;;;2065088;28;20694;-56
2023/10/16 00:49:50;;;;;;;3.70;2.70;;;;;20.80;101215.00;;;;2071057;28;20614;-55
2023/10/16 00:50:50;;;;;;;4.05;2.70;;;;;20.80;101226.00;;;;2065979;28;20218;-56
2023/10/16 00:51:51;;;;;;;4.83;3.20;;;;;20.70;101220.00;;;;2061916;28;20282;-56
2023/10/16 00:52:51;;;;;;;4.40;2.97;;;;;20.80;101227.00;;;;2059411;28;20226;-55
2023/10/16 00:53:52;;;;;;;3.30;2.30;;;;;20.80;101235.00;;;;2070773;28;20284;-55
2023/10/16 00:54:53;;;;;;;3.63;2.60;;;;;20.80;101226.00;;;;2073640;28;20632;-60
2023/10/16 00:55:55;;;;;;;5.18;3.25;;;;;20.80;101225.00;;;;2070815;28;20217;-55
2023/10/16 00:56:57;;;;;;;4.53;2.90;;;;;20.80;101228.00;;;;2078871;28;20215;-56
2023/10/16 00:57:57;;;;;;;4.00;2.45;;;;;20.70;101230.00;;;;2056773;28;20230;-56
2023/10/16 00:58:58;;;;;;;4.60;2.70;;;;;20.70;101225.00;;;;2062752;28;20206;-56
2023/10/16 00:59:58;;;;;;;3.17;2.43;;;;;20.70;101218.00;;;;2058160;28;20211;-56
2023/10/16 01:01:02;;;;;;;3.77;2.63;;;;;20.70;101220.00;;;;2072337;28;20214;-56
2023/10/16 01:03:06;;;;;;;4.57;2.90;;;;;20.70;101225.00;;;;2061303;28;20253;-55
2023/10/16 01:04:07;;;;;;;3.90;2.80;;;;;20.70;101225.00;;;;2071534;28;20214;-55
2023/10/16 01:05:08;;;;;;;3.13;2.70;;;;;20.70;101215.00;;;;2068366;28;20217;-56
2023/10/16 01:06:15;;;;;;;3.40;2.30;;;;;20.70;101227.00;;;;2074921;28;20728;-56
2023/10/16 01:07:16;;;;;;;3.30;2.30;;;;;20.70;101223.00;;;;2074940;28;20784;-55
2023/10/16 01:08:17;;;;;;;3.57;2.70;;;;;20.70;101210.00;;;;2068746;28;20244;-55
2023/10/16 01:09:24;;;;;;;4.70;2.53;;;;;20.70;101221.00;;;;2059321;28;20235;-56
2023/10/16 01:10:24;;;;;;;3.97;2.60;;;;;20.70;101220.00;;;;2062825;28;20221;-56
2023/10/16 01:11:26;;;;;;;3.17;2.50;;;;;20.70;101218.00;;;;2074597;28;20225;-56
2023/10/16 01:12:26;;;;;;;3.35;2.30;;;;;20.70;101215.00;;;;2072580;28;20233;-55
2023/10/16 01:13:28;;;;;;;4.00;2.40;;;;;20.70;101217.00;;;;2068160;28;20229;-56
2023/10/16 01:14:29;;;;;;;3.83;2.53;;;;;20.70;101214.00;;;;2071143;28;20229;-55
2023/10/16 01:15:29;;;;;;;3.75;2.70;;;;;20.70;101223.00;;;;2072856;28;20709;-56
2023/10/16 01:16:30;;;;;;;3.83;2.50;;;;;20.70;101221.00;;;;2079773;28;20256;-56
2023/10/16 01:17:31;;;;;;;3.40;2.70;;;;;20.70;101213.00;;;;2074114;28;20298;-56
2023/10/16 01:18:32;;;;;;;3.70;2.70;;;;;19.70;101217.00;;;;2069423;28;20655;-56
2023/10/16 01:19:32;;;;;;;3.60;2.50;;;;;20.70;101214.00;;;;2069736;28;20225;-56
2023/10/16 01:20:32;;;;;;;3.30;2.70;;;;;20.70;101224.00;;;;2071039;28;20261;-56
2023/10/16 01:21:33;;;;;;;3.43;2.40;;;;;20.70;101218.00;;;;2067330;28;20226;-56
2023/10/16 01:22:34;;;;;;;3.17;2.73;;;;;20.70;101221.00;;;;2062896;28;20262;-56
2023/10/16 01:23:35;;;;;;;3.10;2.33;;;;;20.70;101215.00;;;;2052880;28;20337;-56
2023/10/16 01:24:41;;;;;;;2.83;2.50;;;;;20.70;101219.00;;;;2074106;28;20831;-56
2023/10/16 01:25:44;;;;;;;5.75;2.60;;;;;20.70;101219.00;;;;2074365;28;20218;-56
2023/10/16 01:26:45;;;;;;;2.95;2.20;;;;;20.70;101212.00;;;;2070822;28;20356;-56
2023/10/16 01:27:45;;;;;;;3.20;2.13;;;;;20.70;101213.00;;;;2067728;28;20651;-56
2023/10/16 01:28:45;;;;;;;3.70;2.20;;;;;20.70;101219.00;;;;2071148;28;20230;-56
2023/10/16 01:29:47;;;;;;;3.17;2.53;;;;;20.70;101204.00;;;;2077237;28;20233;-55
2023/10/16 01:30:47;;;;;;;3.47;2.20;;;;;20.70;101217.00;;;;2078976;28;20213;-55
2023/10/16 01:31:51;;;;;;;4.03;2.73;;;;;20.70;101217.00;;;;2075140;28;20663;-56
2023/10/16 01:32:52;;;;;;;2.45;1.80;;;;;20.60;101216.00;;;;2058440;28;20238;-55
2023/10/16 01:33:54;;;;;;;3.03;2.50;;;;;20.70;101206.00;;;;2062402;28;20730;-57
2023/10/16 01:34:56;;;;;;;3.00;2.30;;;;;20.60;101216.00;;;;2061945;28;20211;-56
2023/10/16 01:35:56;;;;;;;4.20;2.20;;;;;20.70;101209.00;;;;2071783;28;20209;-56
2023/10/16 01:37:01;;;;;;;3.17;2.40;;;;;20.70;101216.00;;;;2074881;28;20218;-57
2023/10/16 01:38:14;;;;;;;2.70;2.03;;;;;20.60;101208.00;;;;2062566;28;20229;-55
2023/10/16 01:42:11;;;;;;;2.83;2.40;;;;;20.70;101219.00;;;;2066700;28;20648;-56
2023/10/16 01:43:13;;;;;;;4.07;2.08;;;;;20.60;101212.00;;;;2055604;28;20225;-56
2023/10/16 01:44:18;;;;;;;3.00;2.33;;;;;20.60;101210.00;;;;2068641;28;20309;-55
2023/10/16 01:45:20;;;;;;;3.45;2.00;;;;;20.60;101210.00;;;;2073267;28;20772;-55
2023/10/16 01:46:20;;;;;;;3.55;2.78;;;;;20.60;101210.00;;;;2070972;28;20280;-56
2023/10/16 01:47:20;;;;;;;3.20;2.10;;;;;20.60;101212.00;;;;2074919;28;20217;-55
2023/10/16 01:48:21;;;;;;;3.30;2.10;;;;;20.60;101213.00;;;;2064867;28;20228;-56
2023/10/16 01:49:24;;;;;;;2.97;2.37;;;;;20.60;101209.00;;;;2074588;28;20226;-56
2023/10/16 01:50:27;;;;;;;2.75;2.38;;;;;20.60;101209.00;;;;2064177;28;20301;-56
2023/10/16 01:51:30;;;;;;;3.90;2.50;;;;;20.60;101209.00;;;;2073249;28;20226;-56
2023/10/16 01:52:33;;;;;;;2.97;2.53;;;;;20.60;101211.00;;;;2060900;28;20222;-56
2023/10/16 01:53:36;;;;;;;2.80;1.92;;;;;20.60;101208.00;;;;2068696;28;20217;-57
2023/10/16 01:54:40;;;;;;;4.50;2.42;;;;;20.60;101212.00;;;;2072717;28;20241;-56
2023/10/16 01:55:51;;;;;;;3.40;2.65;;;;;20.60;101198.00;;;;2069947;28;20288;-55
2023/10/16 01:56:51;;;;;;;3.28;2.78;;;;;20.60;101198.00;;;;2070654;28;20225;-56
2023/10/16 01:57:51;;;;;;;3.40;2.20;;;;;20.60;101201.00;;;;2060967;28;20300;-56
2023/10/16 01:58:52;;;;;;;3.50;2.47;;;;;20.60;101193.00;;;;2070744;28;20335;-56
2023/10/16 01:59:53;;;;;;;2.50;2.07;;;;;20.60;101201.00;;;;2062957;28;20245;-55
2023/10/16 02:00:54;;;;;;;3.63;2.73;;;;;20.60;101204.00;;;;2065298;28;20214;-56
2023/10/16 02:01:55;;;;;;;3.28;1.90;;;;;20.60;101198.00;;;;2071262;28;20521;-56
2023/10/16 02:02:57;;;;;;;2.97;2.17;;;;;20.60;101202.00;;;;2064747;28;20230;-56
2023/10/16 02:03:58;;;;;;;3.10;2.00;;;;;20.60;101204.00;;;;2070124;28;20284;-56
2023/10/16 02:04:58;;;;;;;3.30;2.27;;;;;20.60;101203.00;;;;2073838;28;20268;-56
2023/10/16 02:05:58;;;;;;;3.50;2.07;;;;;20.60;101198.00;;;;2073557;28;20611;-56
2023/10/16 02:07:00;;;;;;;3.47;1.87;;;;;20.60;101200.00;;;;2069854;28;20217;-55
2023/10/16 02:08:01;;;;;;;4.28;2.45;;;;;20.60;101049.00;;;;2066132;28;20236;-56
2023/10/16 02:09:02;;;;;;;3.40;2.20;;;;;20.60;101203.00;;;;2070939;28;20634;-56
2023/10/16 02:10:05;;;;;;;3.58;2.10;;;;;20.60;101202.00;;;;2069802;28;20302;-56
2023/10/16 02:11:06;;;;;;;2.70;2.30;;;;;20.60;101197.00;;;;2068565;28;20280;-56
2023/10/16 02:12:16;;;;;;;2.90;2.20;;;;;20.60;101192.00;;;;2069812;28;20210;-56
2023/10/16 02:13:17;;;;;;;3.25;2.13;;;;;20.60;101194.00;;;;2063837;28;20228;-56
2023/10/16 02:14:17;;;;;;;2.60;2.33;;;;;20.60;101197.00;;;;2070919;28;22113;-56
2023/10/16 02:15:21;;;;;;;2.93;2.30;;;;;20.60;101186.00;;;;2065443;28;20785;-55
2023/10/16 02:16:25;;;;;;;4.13;1.90;;;;;20.60;101190.00;;;;2058613;28;20234;-56
2023/10/16 02:17:26;;;;;;;2.60;2.25;;;;;20.60;101195.00;;;;2066585;28;20227;-55
2023/10/16 02:18:27;;;;;;;5.20;3.13;;;;;20.60;101193.00;;;;2055458;28;20285;-56
2023/10/16 02:19:27;;;;;;;2.80;2.10;;;;;20.60;101190.00;;;;2069653;28;20687;-55
2023/10/16 02:20:28;;;;;;;2.83;2.20;;;;;20.50;101197.00;;;;2073210;28;20225;-55
2023/10/16 02:21:28;;;;;;;3.40;2.27;;;;;20.60;101193.00;;;;2071889;28;20233;-55
2023/10/16 02:22:32;;;;;;;2.90;2.50;;;;;20.50;101189.00;;;;2070185;28;20222;-56
2023/10/16 02:23:32;;;;;;;2.47;2.03;;;;;20.50;101183.00;;;;2060162;28;20210;-56
2023/10/16 02:24:34;;;;;;;3.87;2.23;;;;;20.50;101183.00;;;;2069400;28;20221;-56
2023/10/16 02:25:35;;;;;;;2.75;2.30;;;;;20.50;101185.00;;;;2070709;28;20218;-56
2023/10/16 02:26:53;;;;;;;3.38;2.20;;;;;20.60;101185.00;;;;2065643;28;20215;-56
2023/10/16 02:27:54;;;;;;;3.47;2.60;;;;;20.50;101184.00;;;;2060528;28;20214;-56
2023/10/16 02:28:55;;;;;;;3.42;2.15;;;;;20.50;101187.00;;;;2070057;28;20222;-56
2023/10/16 02:30:00;;;;;;;2.58;1.80;;;;;20.50;101187.00;;;;2070131;28;20210;-56
2023/10/16 02:31:19;;;;;;;3.40;3.00;;;;;20.50;101179.00;;;;2069120;28;20238;-56
2023/10/16 02:32:22;;;;;;;4.40;2.40;;;;;20.50;101183.00;;;;2072103;28;20201;-56
2023/10/16 02:33:26;;;;;;;2.97;2.03;;;;;20.50;101179.00;;;;2054201;28;20282;-56
2023/10/16 02:34:27;;;;;;;2.85;2.13;;;;;20.50;101179.00;;;;2069560;28;20238;-56
2023/10/16 02:35:27;;;;;;;3.63;2.00;;;;;20.50;101178.00;;;;2071013;28;20246;-55
2023/10/16 02:36:29;;;;;;;3.30;2.00;;;;;20.50;101178.00;;;;2068997;28;20222;-56
2023/10/16 02:37:29;;;;;;;4.25;2.45;;;;;20.50;101172.00;;;;2070734;28;20228;-56
2023/10/16 02:38:30;;;;;;;2.50;1.90;;;;;20.50;101173.00;;;;2059999;28;20233;-56
2023/10/16 02:39:37;;;;;;;2.60;2.00;;;;;20.50;101169.00;;;;2061604;28;20778;-56
2023/10/16 02:40:39;;;;;;;2.85;2.17;;;;;20.50;101169.00;;;;2065756;28;20566;-56
2023/10/16 02:41:41;;;;;;;2.17;1.90;;;;;20.50;101174.00;;;;2072556;28;20713;-55
2023/10/16 02:42:42;;;;;;;2.85;2.30;;;;;20.50;101173.00;;;;2056849;28;20995;-56
2023/10/16 02:43:42;;;;;;;2.73;2.00;;;;;20.50;101179.00;;;;2070872;28;20222;-56
2023/10/16 02:44:42;;;;;;;4.60;2.60;;;;;20.50;101181.00;;;;2070020;28;20221;-56
2023/10/16 02:45:46;;;;;;;3.00;2.17;;;;;20.50;101179.00;;;;2071685;28;20210;-56
2023/10/16 02:46:47;;;;;;;3.72;2.20;;;;;19.60;101173.00;;;;2069989;28;20764;-56
2023/10/16 02:47:49;;;;;;;2.67;2.40;;;;;20.50;101175.00;;;;2052553;28;20254;-55
2023/10/16 02:48:53;;;;;;;2.58;2.00;;;;;20.50;101183.00;;;;2070087;28;20297;-56
2023/10/16 02:49:53;;;;;;;3.45;2.35;;;;;20.50;101183.00;;;;2068877;28;20217;-55
2023/10/16 02:50:59;;;;;;;4.03;2.33;;;;;20.50;101177.00;;;;2069724;28;20304;-56
2023/10/16 02:52:00;;;;;;;3.28;2.00;;;;;20.50;101183.00;;;;2069570;28;21104;-56
2023/10/16 02:53:00;;;;;;;2.80;2.50;;;;;20.50;101192.00;;;;2061064;28;20292;-56
2023/10/16 02:54:01;;;;;;;3.17;2.20;;;;;20.50;101186.00;;;;2068543;28;20221;-56
2023/10/16 02:55:01;;;;;;;2.23;1.90;;;;;20.50;101192.00;;;;2069238;28;20214;-55
2023/10/16 02:56:05;;;;;;;2.70;2.30;;;;;20.40;101188.00;;;;2070490;28;20285;-56
2023/10/16 02:57:06;;;;;;;2.53;2.15;;;;;20.50;101188.00;;;;2067902;28;20222;-56
2023/10/16 02:58:11;;;;;;;3.63;2.42;;;;;20.50;101190.00;;;;2055593;28;20229;-56
2023/10/16 02:59:11;;;;;;;2.90;2.20;;;;;20.50;101179.00;;;;2070473;28;20214;-55
2023/10/16 03:00:23;;;;;;;2.50;2.17;;;;;20.50;101191.00;;;;2068383;28;20210;-56
2023/10/16 03:01:23;;;;;;;3.70;2.33;;;;;20.40;101188.00;;;;2068953;28;20225;-56
2023/10/16 03:02:26;;;;;;;2.30;2.10;;;;;20.50;101187.00;;;;2066725;28;20217;-55
2023/10/16 03:03:27;;;;;;;2.95;2.17;;;;;20.50;101184.00;;;;2065184;28;20225;-57
2023/10/16 03:04:28;;;;;;;2.77;2.20;;;;;20.50;101194.00;;;;2075955;28;20224;-56
2023/10/16 03:05:28;;;;;;;3.33;2.20;;;;;20.50;101196.00;;;;2063846;28;20218;-55
2023/10/16 03:06:30;;;;;;;2.43;2.00;;;;;20.50;101192.00;;;;2061229;28;20238;-56
2023/10/16 03:07:31;;;;;;;3.47;2.42;;;;;20.50;101194.00;;;;2063686;28;20222;-56
2023/10/16 03:08:32;;;;;;;4.07;2.37;;;;;20.40;101200.00;;;;2053961;28;20223;-56
2023/10/16 03:09:33;;;;;;;3.10;2.13;;;;;20.40;101198.00;;;;2063826;28;20222;-55
2023/10/16 03:10:36;;;;;;;3.30;2.45;;;;;20.40;101192.00;;;;2069362;28;20241;-56
2023/10/16 03:11:36;;;;;;;2.40;2.08;;;;;20.40;101195.00;;;;2068112;28;20237;-56
2023/10/16 03:12:37;;;;;;;2.50;2.27;;;;;20.40;101199.00;;;;2068269;28;20573;-56
2023/10/16 03:13:37;;;;;;;4.40;2.57;;;;;20.40;101206.00;;;;2055945;28;20585;-56
2023/10/16 03:14:49;;;;;;;4.23;2.27;;;;;20.40;101199.00;;;;2069057;28;20215;-56
2023/10/16 03:15:57;;;;;;;2.53;1.75;;;;;20.40;101192.00;;;;2066668;28;20217;-55
2023/10/16 03:16:58;;;;;;;2.90;2.40;;;;;20.40;101188.00;;;;2068591;28;20283;-55
2023/10/16 03:18:00;;;;;;;2.80;2.17;;;;;20.40;101191.00;;;;2059286;28;20226;-55
2023/10/16 03:19:09;;;;;;;3.03;2.25;;;;;20.40;101193.00;;;;2068285;28;21074;-56
2023/10/16 03:20:19;;;;;;;4.35;2.50;;;;;20.40;101193.00;;;;2067357;28;20289;-55
2023/10/16 03:22:21;;;;;;;2.97;2.30;;;;;20.40;101194.00;;;;2067571;28;21021;-55
2023/10/16 03:23:21;;;;;;;3.00;2.30;;;;;20.40;101198.00;;;;2060514;28;20225;-55
2023/10/16 03:24:23;;;;;;;3.20;2.37;;;;;20.40;101203.00;;;;2061865;28;20222;-55
2023/10/16 03:26:42;;;;;;;2.53;2.15;;;;;20.40;101215.00;;;;2071947;28;20208;-55
2023/10/16 03:27:44;;;;;;;3.63;2.60;;;;;20.40;101204.00;;;;2059479;28;20238;-55
2023/10/16 03:28:44;;;;;;;3.03;2.38;;;;;20.40;101200.00;;;;2079749;28;20316;-55
2023/10/16 03:29:44;;;;;;;2.50;2.30;;;;;20.40;101197.00;;;;2078506;28;20280;-55
2023/10/16 03:30:45;;;;;;;3.07;2.30;;;;;20.40;101191.00;;;;2071383;28;20233;-56
2023/10/16 03:31:46;;;;;;;2.63;2.30;;;;;20.40;101198.00;;;;2068714;28;20241;-56
2023/10/16 03:32:47;;;;;;;2.95;1.90;;;;;20.40;101194.00;;;;2058459;28;20227;-55
2023/10/16 03:33:48;;;;;;;2.80;2.40;;;;;20.40;101198.00;;;;2067803;28;20226;-55
2023/10/16 03:34:48;;;;;;;2.23;2.03;;;;;20.40;101187.00;;;;2068557;28;20698;-55
2023/10/16 03:35:49;;;;;;;4.23;2.03;;;;;20.40;101189.00;;;;2068239;28;21023;-55
2023/10/16 03:36:54;;;;;;;2.63;2.40;;;;;20.40;101191.00;;;;2068809;28;20241;-55
2023/10/16 03:37:54;;;;;;;3.10;2.45;;;;;20.40;101192.00;;;;2058005;28;20686;-55
2023/10/16 03:38:57;;;;;;;2.83;2.50;;;;;20.40;101189.00;;;;2076240;28;20213;-55
2023/10/16 03:40:03;;;;;;;3.17;2.00;;;;;20.40;101195.00;;;;2061440;28;20221;-55
2023/10/16 03:41:27;;;;;;;2.60;1.90;;;;;20.40;101195.00;;;;2067681;28;20218;-56
2023/10/16 03:42:28;;;;;;;3.42;2.10;;;;;20.40;101194.00;;;;2059968;28;20210;-55
2023/10/16 03:43:28;;;;;;;3.07;2.13;;;;;20.40;101200.00;;;;2060854;28;20210;-55
2023/10/16 03:44:30;;;;;;;2.93;2.13;;;;;20.40;101192.00;;;;2070822;28;20962;-56
2023/10/16 03:45:31;;;;;;;3.42;2.38;;;;;20.40;101253.00;;;;2059150;28;20336;-56
2023/10/16 03:46:32;;;;;;;2.50;2.30;;;;;20.40;101199.00;;;;2069051;28;20701;-55
2023/10/16 03:47:33;;;;;;;2.80;2.10;;;;;20.40;101188.00;;;;2068103;28;20222;-55
2023/10/16 03:48:35;;;;;;;2.23;1.83;;;;;20.40;101188.00;;;;2059619;28;20292;-55
2023/10/16 03:49:36;;;;;;;3.90;2.35;;;;;20.30;101181.00;;;;2067457;28;20548;-55
2023/10/16 03:50:38;;;;;;;3.65;2.70;;;;;20.30;101194.00;;;;2068413;28;20210;-55
2023/10/16 03:51:38;;;;;;;3.30;2.30;;;;;19.70;101262.00;;;;2068861;28;20221;-55
2023/10/16 03:52:39;;;;;;;2.20;2.00;;;;;20.30;101189.00;;;;2060397;28;20876;-55
2023/10/16 03:53:40;;;;;;;3.63;2.90;;;;;20.40;101192.00;;;;2067221;28;20679;-56
2023/10/16 03:54:41;;;;;;;2.88;2.25;;;;;19.90;101192.00;;;;2062219;28;20226;-56
2023/10/16 03:55:44;;;;;;;3.67;2.53;;;;;20.30;101195.00;;;;2064823;28;20741;-59
2023/10/16 03:56:45;;;;;;;2.05;1.85;;;;;20.30;101188.00;;;;2066089;28;20301;-55
2023/10/16 03:57:46;;;;;;;3.95;2.85;;;;;20.30;101196.00;;;;2055361;28;20630;-55
2023/10/16 03:58:46;;;;;;;4.50;2.23;;;;;20.30;101185.00;;;;2068078;28;20210;-55
2023/10/16 03:59:47;;;;;;;2.40;2.20;;;;;20.30;101190.00;;;;2072591;28;20213;-56
2023/10/16 04:00:52;;;;;;;2.47;2.27;;;;;20.30;101190.00;;;;2065365;28;20450;-56
2023/10/16 04:01:53;;;;;;;2.58;2.30;;;;;20.30;101196.00;;;;2055416;28;20306;-55
2023/10/16 04:02:53;;;;;;;2.20;1.90;;;;;20.30;101187.00;;;;2058623;28;20214;-55
2023/10/16 04:03:57;;;;;;;3.97;2.27;;;;;20.30;101178.00;;;;2071101;28;20213;-55
2023/10/16 04:04:58;;;;;;;3.08;2.15;;;;;20.40;101187.00;;;;2068676;28;20449;-55
2023/10/16 04:05:59;;;;;;;3.42;2.22;;;;;20.30;101186.00;;;;2074369;28;20275;-55
2023/10/16 04:07:00;;;;;;;2.75;2.00;;;;;20.30;101189.00;;;;2066689;28;20276;-56
2023/10/16 04:08:01;;;;;;;2.73;2.13;;;;;20.30;101189.00;;;;2064419;28;20229;-55
2023/10/16 04:09:04;;;;;;;3.05;2.10;;;;;20.30;101189.00;;;;2072111;28;20220;-55
2023/10/16 04:10:27;;;;;;;3.30;2.20;;;;;20.30;101182.00;;;;2070674;28;20225;-56
2023/10/16 04:11:25;;;;;;;3.05;2.30;;;;;20.30;101189.00;;;;2072664;28;20222;-56
2023/10/16 04:12:26;;;;;;;3.17;2.00;;;;;20.30;101196.00;;;;2070985;28;20613;-55
2023/10/16 04:13:26;;;;;;;3.03;2.50;;;;;20.30;101192.00;;;;2060361;28;20714;-55
2023/10/16 04:15:59;;;;;;;3.50;2.25;;;;;20.30;101183.00;;;;2062472;28;20222;-55
2023/10/16 04:17:00;;;;;;;3.47;2.30;;;;;20.30;101190.00;;;;2072550;28;21108;-55
2023/10/16 04:18:04;;;;;;;4.10;2.33;;;;;20.30;101192.00;;;;2066052;28;20236;-56
2023/10/16 04:21:45;;;;;;;2.78;2.13;;;;;20.30;100979.00;;;;2069016;28;20313;-55
2023/10/16 04:22:57;;;;;;;2.90;2.10;;;;;20.30;101176.00;;;;2058441;28;20218;-55
2023/10/16 04:23:58;;;;;;;3.30;2.45;;;;;20.30;101184.00;;;;2070475;28;20771;-56
2023/10/16 04:24:59;;;;;;;2.70;2.30;;;;;20.30;101181.00;;;;2069938;28;20280;-55
2023/10/16 04:28:29;;;;;;;2.75;2.22;;;;;20.30;101180.00;;;;2066268;28;20226;-55
2023/10/16 04:29:33;;;;;;;3.97;2.28;;;;;20.30;101174.00;;;;2085822;28;20248;-55
2023/10/16 04:30:39;;;;;;;3.40;2.20;;;;;20.30;101180.00;;;;2071262;28;20234;-55
2023/10/16 04:31:56;;;;;;;3.63;2.65;;;;;20.30;101175.00;;;;2070163;28;20293;-55
2023/10/16 04:32:56;;;;;;;2.38;2.17;;;;;20.30;101178.00;;;;2058618;28;20584;-55
2023/10/16 04:34:13;;;;;;;3.30;3.00;;;;;20.30;101176.00;;;;2075015;28;20218;-55
2023/10/16 04:35:32;;;;;;;2.67;2.10;;;;;20.30;101181.00;;;;2069178;28;20226;-55
2023/10/16 04:38:53;;;;;;;2.75;2.40;;;;;20.30;101174.00;;;;2054448;28;20222;-56
2023/10/16 04:42:39;;;;;;;3.20;2.35;;;;;20.30;101173.00;;;;2069281;28;20217;-55
2023/10/16 04:43:38;;;;;;;3.00;2.70;;;;;20.10;101170.00;;;;2060570;28;20962;-56
2023/10/16 04:44:49;;;;;;;3.35;2.50;;;;;20.20;101168.00;;;;2072994;28;20674;-55
2023/10/16 04:46:16;;;;;;;2.78;2.15;;;;;20.20;101166.00;;;;2067649;28;20318;-55
2023/10/16 04:47:19;;;;;;;4.47;2.30;;;;;20.20;101173.00;;;;2068583;28;20213;-56
2023/10/16 04:50:07;;;;;;;6.07;2.90;;;;;20.20;101165.00;;;;2063311;28;20227;-55
2023/10/16 04:51:16;;;;;;;3.97;2.80;;;;;19.70;101158.00;;;;2070601;28;20670;-55
2023/10/16 04:52:36;;;;;;;3.03;2.60;;;;;20.20;101159.00;;;;2068419;28;20238;-55
2023/10/16 04:53:48;;;;;;;4.20;2.63;;;;;20.20;101158.00;;;;2060080;28;20226;-55
2023/10/16 04:55:02;;;;;;;3.40;2.50;;;;;20.20;101161.00;;;;2066155;28;20210;-55
2023/10/16 04:56:15;;;;;;;4.18;2.50;;;;;20.20;101155.00;;;;2070101;28;20225;-56
2023/10/16 04:59:36;;;;;;;2.60;2.37;;;;;20.20;101148.00;;;;2066895;28;20214;-55
2023/10/16 05:02:18;;;;;;;3.28;2.75;;;;;20.20;101144.00;;;;2066700;28;20898;-55
2023/10/16 05:03:23;;;;;;;5.43;2.67;;;;;20.20;101140.00;;;;2066945;28;20221;-56
2023/10/16 05:07:16;;;;;;;3.65;2.85;;;;;20.20;101132.00;;;;2068767;28;20217;-56
2023/10/16 05:10:12;;;;;;;3.47;2.45;;;;;20.20;101128.00;;;;2049291;28;20219;-55
2023/10/16 05:14:28;;;;;;;3.90;3.40;;;;;20.20;101130.00;;;;2045929;28;20226;-55
2023/10/16 05:15:41;;;;;;;2.83;2.30;;;;;20.20;101137.00;;;;2059307;28;20292;-55
2023/10/16 05:18:11;;;;;;;3.65;2.75;;;;;20.20;101137.00;;;;2058522;28;20229;-55
2023/10/16 05:19:43;;;;;;;5.35;3.00;;;;;19.60;101142.00;;;;2066354;28;20415;-55
2023/10/16 05:21:16;;;;;;;4.65;3.05;;;;;20.20;101136.00;;;;2066614;28;20905;-56
2023/10/16 06:14:09;;;;;;;5.43;2.83;;;;;20.20;101195.00;;;;2069030;28;21000;-55
2023/10/16 06:14:52;;;;;;;4.95;3.08;;;;;20.10;101158.00;;;;2065260;28;20206;-55
2023/10/16 06:15:52;;;;;;;4.30;3.63;;;;;20.10;101153.00;;;;2068261;28;20214;-54
2023/10/16 06:16:53;;;;;;;3.00;2.70;;;;;20.10;101157.00;;;;2069665;28;20225;-56
2023/10/16 06:17:53;;;;;;;3.60;2.97;;;;;20.10;101156.00;;;;2059270;28;20249;-57
2023/10/16 06:18:54;;;;;;;4.83;3.20;;;;;20.10;101159.00;;;;2070993;28;20221;-57
2023/10/16 06:19:54;;;;;;;4.80;3.07;;;;;20.00;101156.00;;;;2064738;28;20230;-57
2023/10/16 06:20:55;;;;;;;4.87;3.43;;;;;20.10;101162.00;;;;2069578;28;20221;-56
2023/10/16 06:21:57;;;;;;;3.67;3.13;;;;;20.10;101156.00;;;;2068138;28;20887;-57
2023/10/16 06:22:58;;;;;;;5.07;3.50;;;;;20.10;101161.00;;;;2063994;28;20665;-55
2023/10/16 06:23:59;;;;;;;3.80;3.40;;;;;20.10;101160.00;;;;2075969;28;20291;-55
2023/10/16 06:25:00;;;;;;;4.68;3.35;;;;;20.10;101162.00;;;;2068098;28;20276;-57
2023/10/16 06:26:07;;;;;;;4.68;3.10;;;;;20.10;101157.00;;;;2066704;28;20327;-55
2023/10/16 06:27:11;;;;;;;3.95;3.55;;;;;20.10;101162.00;;;;2062773;28;20218;-56
2023/10/16 06:28:15;;;;;;;4.00;3.55;;;;;20.10;101164.00;;;;2057069;28;20226;-56
2023/10/16 06:29:15;;;;;;;8.45;3.42;;;;;20.00;101164.00;;;;2069559;28;20284;-57
2023/10/16 06:30:19;;;;;;;4.90;3.00;;;;;20.10;101163.00;;;;2067804;28;20226;-57
2023/10/16 06:31:25;;;;;;;4.65;2.63;;;;;20.10;101162.00;;;;2068991;28;20273;-55
2023/10/16 06:32:26;;;;;;;4.82;3.00;;;;;20.20;101158.00;;;;2058974;28;20219;-58
2023/10/16 06:33:28;;;;;;;4.07;2.90;;;;;20.20;101165.00;;;;2057203;28;20226;-56
2023/10/16 06:34:28;;;;;;;4.22;3.50;;;;;20.20;101160.00;;;;2067060;28;20249;-56
2023/10/16 06:35:29;;;;;;;4.00;3.40;;;;;20.20;101164.00;;;;2076755;28;20217;-55
2023/10/16 06:36:29;;;;;;;4.50;3.17;;;;;20.20;101157.00;;;;2068889;28;20218;-56